• Join FlightAware (Why Join?)
  • Login
  • US Flag 
01:45AM EST


 

Airport Tracker/Info


-or-


 

Live Flight TrackerFlight Track Log ✈ AVN51 ✈ 15-Feb-2014 ✈ NZAA / AKL - NVVV / VLI

Flight Track Log - Related Links

Times and Time Zones

All times are in EST time to prevent confusion due to time zone crossing. See the AVN51 flight status page for this flight to view local times or setup timezone preferences in your user account.

Time Position Orientation Groundspeed Altitude Reporting Facility
EST Latitude Longitude Course Direction KTS MPH feet Rate Location/Type
07:09PM -37.0167 174.7667 342° North 107 123  Level New Zealand
07:10PM -36.9133 174.7527 342° North  Level Estimated
07:10PM -37.0333 174.7167 247° West 177 204  Level New Zealand
07:11PM -37.0500 174.6500 253° West 212 244 3,240 Level New Zealand
07:12PM -37.0190 174.5810 253° West 281 323 6,200 5,700 Climbing FlightAware ADS-B
07:12PM -37.0000 174.5610 320° Northwest 300 345 6,700 1,860 Climbing FlightAware ADS-B
07:13PM -36.9820 174.5420 320° Northwest 307 353 7,300 1,680 Climbing FlightAware ADS-B
07:13PM -36.9620 174.5210 320° Northwest 330 380 7,700 1,860 Climbing FlightAware ADS-B
07:13PM -36.9416 174.4997 320° Northwest 339 390 8,400 2,220 Climbing FlightAware ADS-B
07:13PM -36.9330 174.4900 318° Northwest 341 392 8,600 2,820 Climbing FlightAware ADS-B
07:13PM -36.9180 174.4746 320° Northwest 343 395 9,300 2,880 Climbing FlightAware ADS-B
07:14PM -36.8787 174.4379 323° Northwest 349 402 10,700 2,700 Climbing FlightAware ADS-B
07:14PM -36.8479 174.4244 341° North 355 409 11,600 2,820 Climbing FlightAware ADS-B
07:15PM -36.7981 174.4068 344° North 366 421 13,100 2,760 Climbing FlightAware ADS-B
07:15PM -36.7690 174.3960 343° North 375 432 13,900 2,580 Climbing FlightAware ADS-B
07:15PM -36.7475 174.3887 345° North 380 437 14,400 2,700 Climbing FlightAware ADS-B
07:16PM -36.6957 174.3701 344° North 392 451 15,800 2,880 Climbing FlightAware ADS-B
07:16PM -36.6467 174.3524 344° North 398 458 17,300 2,700 Climbing FlightAware ADS-B
07:17PM -36.5889 174.3317 344° North 407 468 18,600 2,520 Climbing FlightAware ADS-B
07:17PM -36.5840 174.3300 344° North 408 470 18,700 2,580 Climbing FlightAware ADS-B
07:17PM -36.5396 174.3140 344° North 415 478 19,900 2,640 Climbing FlightAware ADS-B
07:18PM -36.4910 174.2970 344° North 420 483 20,900 2,580 Climbing FlightAware ADS-B
07:18PM -36.4739 174.2906 343° North 423 487 21,500 2,580 Climbing FlightAware ADS-B
07:18PM -36.4350 174.2770 344° North 425 489 22,200 2,400 Climbing FlightAware ADS-B
07:19PM -36.4001 174.2642 344° North 430 495 23,100 2,160 Climbing FlightAware ADS-B
07:19PM -36.3670 174.2520 344° North 434 499 23,500 2,160 Climbing FlightAware ADS-B
07:19PM -36.3000 174.2333 344° North 437 503 2,160 Descending New Zealand
07:19PM -36.2970 174.2270 344° North 441 507 24,800 94,080 Climbing FlightAware ADS-B
07:20PM -36.2799 174.2212 345° North 440 506 25,100 1,800 Climbing FlightAware ADS-B
07:20PM -36.1919 174.1898 344° North 452 520 26,500 1,860 Climbing FlightAware ADS-B
07:21PM -36.0667 174.1333 344° North 461 531 -25,260 Descending New Zealand
07:22PM -35.9333 174.1000 349° North 471 542  Level New Zealand
07:23PM -35.8000 174.0500 343° North 468 539  Level New Zealand
07:24PM -35.6833 174.0000 341° North 460 529  Level New Zealand
07:26PM -35.5500 173.9667 349° North 454 522  Level New Zealand
07:27PM -35.4333 173.9167 341° North 458 527  Level New Zealand
07:28PM -35.3000 173.8667 343° North 461 531  Level New Zealand
07:29PM -35.1833 173.8333 347° North 449 517  Level New Zealand
07:30PM -35.0500 173.7833 343° North 443 510  Level New Zealand
07:31PM -34.9333 173.7500 347° North 448 516  Level New Zealand
07:32PM -34.8167 173.7000 341° North 450 518  Level New Zealand
07:33PM -34.6833 173.6667 348° North 452 520  Level New Zealand
07:34PM -34.5667 173.6167 341° North 454 522  Level New Zealand
07:35PM -34.4333 173.5833 348° North 455 524  Level New Zealand
07:36PM -34.3167 173.5333 341° North 454 522  Level New Zealand
07:37PM -34.1833 173.4833 343° North 454 522  Level New Zealand
07:38PM -34.0667 173.4500 347° North 452 520  Level New Zealand
07:39PM -33.9333 173.4000 343° North 449 517  Level New Zealand
07:40PM -33.8667 173.3833 348° North 445 512  Level New Zealand
07:41PM -33.7000 173.3167 342° North 444 511  Level New Zealand
07:42PM -33.6167 173.3000 351° North 463 533  Level New Zealand
07:42PM -33.5167 173.2667 344° North 382 440  Level New Zealand
07:43PM -33.4000 173.2167 340° North 444 511  Level New Zealand
07:44PM -33.2833 173.1667 340° North 439 505  Level New Zealand
07:46PM -33.1333 173.1167 344° North 463 533  Level New Zealand
07:47PM -32.9667 173.0500 341° North 444 511  Level New Zealand
07:48PM -32.8833 173.0167 341° North 463 533  Level New Zealand
07:50PM -32.6333 172.9333 344° North 463 533  Level New Zealand
07:52PM -32.3833 172.8500 344° North 463 533  Level New Zealand
07:54PM -32.1333 172.7500 341° North 463 533  Level New Zealand
07:56PM -31.9000 172.6667 343° North 463 533  Level New Zealand
07:58PM -31.6500 172.5833 344° North 463 533  Level New Zealand
08:00PM -31.4000 172.5000 344° North 463 533  Level New Zealand
08:02PM -31.1500 172.4000 341° North 463 533  Level New Zealand
08:04PM -30.9000 172.3167 344° North 463 533  Level New Zealand
08:06PM -30.6500 172.2333 344° North 463 533  Level New Zealand
08:08PM -30.4167 172.1500 343° North 463 533  Level New Zealand
08:10PM -30.1667 172.0667 344° North 463 533  Level New Zealand
08:12PM -29.9167 171.9833 344° North 463 533  Level New Zealand
08:14PM -29.6667 171.9000 344° North 463 533  Level New Zealand
08:16PM -29.4333 171.8167 343° North 442 509  Level New Zealand
08:18PM -29.3000 171.7833 348° North 447 514  Level New Zealand
08:20PM -29.0667 171.7000 343° North 447 514  Level New Zealand
08:22PM -28.8333 171.6167 343° North 447 514  Level New Zealand
08:24PM -28.5833 171.5333 344° North 447 514  Level New Zealand
08:26PM -28.3500 171.4500 343° North 447 514  Level New Zealand
08:28PM -28.1167 171.3833 346° North 447 514  Level New Zealand
08:30PM -27.8667 171.3000 344° North 447 514  Level New Zealand
08:32PM -27.6333 171.2167 342° North 447 514  Level New Zealand
08:34PM -27.3833 171.1500 347° North 447 514  Level New Zealand
08:36PM -27.1500 171.0667 342° North 447 514  Level New Zealand
08:38PM -26.9167 170.9833 342° North 447 514  Level New Zealand
08:40PM -26.6667 170.9167 347° North 447 514  Level New Zealand
08:42PM -26.4333 170.8333 342° North 447 514  Level New Zealand
08:44PM -26.1833 170.7667 347° North 447 514  Level New Zealand
08:46PM -25.9500 170.6833 342° North 447 514  Level New Zealand
08:48PM -25.7734 170.6279 344° North  Level FlightAware Approximate
08:55PM -25.1189 170.4150 344° North  Level FlightAware Approximate
08:56PM -25.0255 170.3846 344° North  Level FlightAware Approximate
08:57PM -24.9320 170.3544 344° North  Level FlightAware Approximate
08:58PM -24.8385 170.3241 344° North  Level FlightAware Approximate
08:59PM -24.7449 170.2939 344° North  Level FlightAware Approximate
09:00PM -24.6514 170.2638 344° North  Level FlightAware Approximate
09:01PM -24.5579 170.2337 344° North  Level FlightAware Approximate
09:02PM -24.4644 170.2036 344° North  Level FlightAware Approximate
09:03PM -24.3709 170.1736 344° North  Level FlightAware Approximate
09:04PM -24.2773 170.1436 344° North  Level FlightAware Approximate
09:05PM -24.1838 170.1137 344° North  Level FlightAware Approximate
09:06PM -24.0902 170.0838 344° North  Level FlightAware Approximate
09:07PM -23.9967 170.0540 344° North  Level FlightAware Approximate
09:08PM -23.9031 170.0242 344° North  Level FlightAware Approximate
09:09PM -23.8095 169.9944 344° North  Level FlightAware Approximate
09:10PM -23.7160 169.9647 344° North  Level FlightAware Approximate
09:11PM -23.6224 169.9350 344° North  Level FlightAware Approximate
09:12PM -23.5288 169.9054 344° North  Level FlightAware Approximate
09:13PM -23.4352 169.8759 344° North  Level FlightAware Approximate
09:14PM -23.3416 169.8463 344° North  Level FlightAware Approximate
09:15PM -23.2480 169.8168 344° North  Level FlightAware Approximate
09:16PM -23.1544 169.7874 344° North  Level FlightAware Approximate
09:17PM -23.0608 169.7579 344° North  Level FlightAware Approximate
09:18PM -22.9672 169.7285 344° North  Level FlightAware Approximate
09:19PM -22.8736 169.6992 344° North  Level FlightAware Approximate
09:20PM -22.7799 169.6699 344° North  Level FlightAware Approximate
09:21PM -22.6863 169.6407 344° North  Level FlightAware Approximate
09:22PM -22.5927 169.6115 344° North  Level FlightAware Approximate
09:23PM -22.4990 169.5823 344° North  Level FlightAware Approximate
09:24PM -22.4054 169.5532 344° North  Level FlightAware Approximate
09:25PM -22.3117 169.5241 344° North  Level FlightAware Approximate
09:26PM -22.2181 169.4950 344° North  Level FlightAware Approximate
09:27PM -22.1244 169.4660 344° North  Level FlightAware Approximate
09:28PM -22.0307 169.4370 344° North  Level FlightAware Approximate
09:29PM -21.9371 169.4081 344° North  Level FlightAware Approximate
09:30PM -21.8434 169.3792 344° North  Level FlightAware Approximate
09:31PM -21.7497 169.3503 344° North  Level FlightAware Approximate
09:32PM -21.6560 169.3215 344° North  Level FlightAware Approximate
09:33PM -21.5623 169.2927 344° North  Level FlightAware Approximate
09:34PM -21.4686 169.2639 344° North  Level FlightAware Approximate
09:35PM -21.3749 169.2352 344° North  Level FlightAware Approximate
09:36PM -21.2812 169.2065 344° North  Level FlightAware Approximate
09:37PM -21.1875 169.1779 344° North  Level FlightAware Approximate
09:38PM -21.0938 169.1493 344° North  Level FlightAware Approximate
09:39PM -21.0001 169.1207 344° North  Level FlightAware Approximate
09:40PM -20.9063 169.0922 344° North  Level FlightAware Approximate
09:41PM -20.8126 169.0637 344° North  Level FlightAware Approximate
09:42PM -20.7189 169.0352 344° North  Level FlightAware Approximate
09:43PM -20.6251 169.0068 344° North  Level FlightAware Approximate
09:44PM -20.5314 168.9784 344° North  Level FlightAware Approximate
09:45PM -20.4376 168.9500 344° North  Level FlightAware Approximate
09:46PM -20.3439 168.9217 344° North  Level FlightAware Approximate
09:47PM -20.2501 168.8934 344° North  Level FlightAware Approximate
09:48PM -20.1563 168.8652 344° North  Level FlightAware Approximate
09:49PM -20.0626 168.8369 344° North  Level FlightAware Approximate
09:50PM -19.9688 168.8088 344° North  Level FlightAware Approximate
09:51PM -19.8750 168.7806 344° North  Level FlightAware Approximate
09:52PM -19.7812 168.7525 344° North  Level FlightAware Approximate
09:53PM -19.6875 168.7244 344° North  Level FlightAware Approximate
09:54PM -19.5937 168.6963 344° North  Level FlightAware Approximate
09:55PM -19.4999 168.6683 344° North  Level FlightAware Approximate
09:56PM -19.4061 168.6403 344° North  Level FlightAware Approximate
09:57PM -19.3120 168.6134 348° North  Level FlightAware Approximate
09:58PM -19.2167 168.5918 348° North  Level FlightAware Approximate
09:59PM -19.1214 168.5703 348° North  Level FlightAware Approximate
10:00PM -19.0261 168.5488 348° North  Level FlightAware Approximate
10:01PM -18.9308 168.5273 348° North  Level FlightAware Approximate
10:02PM -18.8355 168.5059 348° North  Level FlightAware Approximate
10:03PM -18.7402 168.4845 348° North  Level FlightAware Approximate
10:04PM -18.6448 168.4631 348° North  Level FlightAware Approximate
10:05PM -18.5495 168.4417 348° North  Level FlightAware Approximate
10:06PM -18.4542 168.4204 348° North  Level FlightAware Approximate
10:07PM -18.3589 168.3991 348° North  Level FlightAware Approximate
10:08PM -18.2636 168.3778 348° North  Level FlightAware Approximate
10:09PM -18.1682 168.3565 348° North  Level FlightAware Approximate
10:10PM -18.0729 168.3352 348° North  Level FlightAware Approximate
10:11PM -17.9776 168.3140 348° North  Level FlightAware Approximate
10:12PM -17.8823 168.2928 348° North  Level FlightAware Approximate
10:13PM -17.7869 168.2716 348° North  Level FlightAware Approximate
10:14PM -17.6916 168.2505 348° North  Level FlightAware Approximate
10:15PM -17.6621 168.2439 348° North  Level FlightAware Approximate
10:16PM -17.6993 168.3198 348° North  Level Estimated
10:17PM -17.6993 168.3198 348° North  Level Estimated
10:18PM -17.6993 168.3198 348° North  Level Estimated